Time;durP1;ratioP1;P1;durP2;ratioP2;P2;SDS_P1;SDS_P2;PMS_P1;PMS_P2;Temp;Humidity;BMP_temperature;BMP_pressure;BME280_temperature;BME280_humidity;BME280_pressure;Samples;Min_cycle;Max_cycle;Signal;HPM_P1;HPM_P2
2021/03/18 00:01:18;;;;;;;3.20;2.90;;;-0.50;99.90;;;;;;4699487;30;20485;-76
2021/03/18 00:03:44;;;;;;;3.38;3.08;;;-0.50;99.90;;;;;;4688771;30;20958;-76
2021/03/18 00:06:10;;;;;;;3.65;3.15;;;-0.60;99.90;;;;;;4714174;30;20456;-77
2021/03/18 00:08:36;;;;;;;3.78;3.40;;;-0.60;99.90;;;;;;4715332;30;20421;-76
2021/03/18 00:11:08;;;;;;;3.45;3.15;;;-0.50;99.90;;;;;;4697511;30;20432;-75
2021/03/18 00:13:33;;;;;;;3.40;3.10;;;-0.70;99.90;;;;;;4710554;30;20826;-76
2021/03/18 00:15:59;;;;;;;3.17;2.80;;;-0.70;99.90;;;;;;4703425;30;20417;-75
2021/03/18 00:18:38;;;;;;;6.85;3.67;;;-0.70;99.90;;;;;;4699459;30;20939;-75
2021/03/18 00:21:04;;;;;;;4.30;3.27;;;-0.80;99.90;;;;;;4714282;30;20518;-76
2021/03/18 00:23:31;;;;;;;3.33;3.03;;;-0.80;99.90;;;;;;4712167;30;20489;-75
2021/03/18 00:25:57;;;;;;;3.83;3.28;;;-0.80;99.90;;;;;;4678887;30;20810;-76
2021/03/18 00:28:23;;;;;;;3.42;3.13;;;-0.90;99.90;;;;;;4700022;30;21088;-76
2021/03/18 00:30:49;;;;;;;3.97;3.20;;;-0.90;99.90;;;;;;4727128;30;20430;-75
2021/03/18 00:33:14;;;;;;;3.77;3.43;;;-1.00;99.90;;;;;;4721714;30;20447;-76
2021/03/18 00:35:40;;;;;;;3.67;3.35;;;-1.00;99.90;;;;;;4727331;30;20442;-75
2021/03/18 00:38:06;;;;;;;7.25;3.55;;;-1.00;99.90;;;;;;4698816;30;20809;-76
2021/03/18 00:40:37;;;;;;;5.07;3.85;;;-1.00;99.90;;;;;;4699540;30;20430;-76
2021/03/18 00:43:05;;;;;;;4.72;4.20;;;-0.90;99.90;;;;;;4698931;30;20433;-75
2021/03/18 00:45:33;;;;;;;4.00;3.63;;;-1.00;99.90;;;;;;4714328;30;20437;-76
2021/03/18 00:47:58;;;;;;;4.55;3.70;;;-1.10;99.90;;;;;;4720178;30;20421;-76
2021/03/18 00:50:41;;;;;;;3.60;3.30;;;-1.10;99.90;;;;;;4687330;30;20428;-76
2021/03/18 00:53:11;;;;;;;3.70;3.30;;;-1.10;99.90;;;;;;4709626;30;20430;-76
2021/03/18 00:55:37;;;;;;;3.40;3.10;;;-0.90;99.90;;;;;;4701261;30;20427;-75
2021/03/18 00:58:03;;;;;;;4.68;3.30;;;-1.00;99.90;;;;;;4727635;30;20410;-75
2021/03/18 01:00:33;;;;;;;3.72;3.40;;;-1.00;99.90;;;;;;4706889;30;20506;-75
2021/03/18 01:02:59;;;;;;;3.63;3.33;;;-1.00;99.90;;;;;;4714353;30;20482;-75
2021/03/18 01:05:31;;;;;;;4.47;3.90;;;-1.10;99.90;;;;;;4685829;30;20436;-75
2021/03/18 01:07:57;;;;;;;3.88;3.58;;;-1.10;99.90;;;;;;4681391;30;20437;-75
2021/03/18 01:10:23;;;;;;;4.57;3.80;;;-1.10;99.90;;;;;;4676241;30;20976;-76
2021/03/18 01:12:49;;;;;;;3.75;3.45;;;-1.10;99.90;;;;;;4699700;30;20434;-76
2021/03/18 01:15:15;;;;;;;3.87;3.53;;;-1.20;99.90;;;;;;4701183;30;20797;-76
2021/03/18 01:17:41;;;;;;;5.03;4.00;;;-1.20;99.90;;;;;;4707535;30;20436;-75
2021/03/18 01:20:13;;;;;;;4.30;3.90;;;-1.20;99.90;;;;;;4716983;30;20794;-75
2021/03/18 01:22:38;;;;;;;3.83;3.38;;;-1.20;99.90;;;;;;4710291;30;20435;-76
2021/03/18 01:25:05;;;;;;;4.63;4.18;;;-1.20;99.90;;;;;;4695768;30;20780;-76
2021/03/18 01:27:31;;;;;;;3.83;3.50;;;-1.20;99.90;;;;;;4712786;30;21003;-76
2021/03/18 01:29:56;;;;;;;3.60;3.30;;;-1.30;99.90;;;;;;4699529;30;20517;-76
2021/03/18 01:32:22;;;;;;;3.97;3.67;;;-1.30;99.90;;;;;;4698027;30;20423;-75
2021/03/18 01:34:48;;;;;;;4.10;3.70;;;-1.20;99.90;;;;;;4713484;30;21072;-75
2021/03/18 01:37:13;;;;;;;3.67;3.38;;;-1.30;99.90;;;;;;4684560;30;20429;-76
2021/03/18 01:39:39;;;;;;;4.77;3.97;;;-1.40;99.90;;;;;;4698648;30;20511;-76
2021/03/18 01:42:05;;;;;;;3.50;3.20;;;-1.40;99.90;;;;;;4699162;30;20430;-76
2021/03/18 01:44:31;;;;;;;3.33;3.03;;;-1.40;99.90;;;;;;4705265;30;20518;-76
2021/03/18 01:46:57;;;;;;;3.92;3.63;;;-1.40;99.90;;;;;;4732072;30;21063;-76
2021/03/18 01:49:22;;;;;;;4.53;3.45;;;-1.30;99.90;;;;;;4727734;30;20424;-75
2021/03/18 01:51:48;;;;;;;3.60;3.30;;;-1.40;99.90;;;;;;4688425;30;20434;-76
2021/03/18 01:54:14;;;;;;;4.43;3.30;;;-1.40;99.90;;;;;;4725703;30;20525;-75
2021/03/18 01:56:40;;;;;;;3.83;3.47;;;-1.40;99.90;;;;;;4708269;30;20436;-76
2021/03/18 01:59:05;;;;;;;4.25;3.47;;;-1.40;99.90;;;;;;4719748;30;20869;-76
2021/03/18 02:01:31;;;;;;;3.70;3.40;;;-1.40;99.90;;;;;;4699834;30;20437;-76
2021/03/18 02:03:57;;;;;;;4.10;3.50;;;-1.40;99.90;;;;;;4717280;30;20432;-76
2021/03/18 02:06:22;;;;;;;3.72;3.42;;;-1.50;99.90;;;;;;4719231;30;20438;-75
2021/03/18 02:08:48;;;;;;;4.90;4.05;;;-1.60;99.90;;;;;;4709452;30;20459;-76
2021/03/18 02:11:14;;;;;;;3.83;3.47;;;-1.60;99.90;;;;;;4693844;30;20438;-76
2021/03/18 02:13:40;;;;;;;4.30;3.90;;;-1.70;99.90;;;;;;4716620;30;20484;-76
2021/03/18 02:16:07;;;;;;;3.80;3.30;;;-1.70;99.90;;;;;;4697349;30;20564;-76
2021/03/18 02:18:48;;;;;;;3.65;3.35;;;-1.70;99.90;;;;;;4730210;30;20425;-76
2021/03/18 02:21:29;;;;;;;4.30;3.90;;;-1.70;99.90;;;;;;4722097;30;20488;-76
2021/03/18 02:24:03;;;;;;;4.22;3.85;;;-1.80;99.90;;;;;;4719588;30;20446;-76
2021/03/18 02:26:38;;;;;;;4.30;3.90;;;-1.80;99.90;;;;;;4705640;30;20917;-76
2021/03/18 02:29:45;;;;;;;4.20;3.80;;;-1.90;99.90;;;;;;4726545;30;20459;-76
2021/03/18 02:32:17;;;;;;;4.80;3.97;;;-1.90;99.90;;;;;;4696895;30;20461;-76
2021/03/18 02:34:58;;;;;;;5.35;3.90;;;-1.90;99.90;;;;;;4723831;30;20442;-76
2021/03/18 02:37:25;;;;;;;5.25;4.30;;;-2.00;99.90;;;;;;4703829;30;20428;-76
2021/03/18 02:39:58;;;;;;;5.95;4.72;;;-2.00;99.90;;;;;;4709609;30;20434;-76
2021/03/18 02:42:23;;;;;;;4.53;3.88;;;-2.10;99.90;;;;;;4704863;30;20432;-76
2021/03/18 02:44:51;;;;;;;5.30;4.63;;;-2.20;99.90;;;;;;4684147;30;20518;-76
2021/03/18 02:47:17;;;;;;;5.17;4.67;;;-2.20;99.90;;;;;;4723041;30;20442;-77
2021/03/18 02:49:44;;;;;;;5.90;4.63;;;-2.10;99.90;;;;;;4717433;30;20854;-76
2021/03/18 02:52:12;;;;;;;5.28;4.78;;;-2.20;99.90;;;;;;4708963;30;20476;-76
2021/03/18 02:54:37;;;;;;;5.32;4.82;;;-2.20;99.90;;;;;;4683387;30;20433;-76
2021/03/18 02:57:04;;;;;;;4.93;4.50;;;-2.20;99.90;;;;;;4698914;30;20482;-76
2021/03/18 02:59:32;;;;;;;5.90;5.30;;;-2.10;99.90;;;;;;4711917;30;20430;-77
2021/03/18 03:01:59;;;;;;;6.38;5.45;;;-2.00;99.90;;;;;;4710737;30;21050;-75
2021/03/18 03:04:25;;;;;;;5.72;5.22;;;-2.10;99.90;;;;;;4701864;30;20438;-76
2021/03/18 03:06:51;;;;;;;6.40;5.70;;;-2.10;99.90;;;;;;4716111;30;20433;-75
2021/03/18 03:09:17;;;;;;;7.78;6.97;;;-2.00;99.90;;;;;;4715535;30;20771;-75
2021/03/18 03:11:42;;;;;;;9.35;7.03;;;-2.10;99.90;;;;;;4700710;30;20430;-75
2021/03/18 03:14:08;;;;;;;8.37;6.70;;;-2.10;99.90;;;;;;4730730;30;20886;-75
2021/03/18 03:16:34;;;;;;;6.68;5.97;;;-2.10;99.90;;;;;;4713106;30;20912;-76
2021/03/18 03:19:00;;;;;;;7.90;6.80;;;-2.00;99.90;;;;;;4700685;30;20434;-75
2021/03/18 03:21:25;;;;;;;8.00;6.03;;;-1.90;99.90;;;;;;4702216;30;20501;-75
2021/03/18 03:23:51;;;;;;;8.47;6.77;;;-2.00;99.90;;;;;;4709434;30;21063;-76
2021/03/18 03:26:17;;;;;;;7.63;6.47;;;-1.90;99.90;;;;;;4716702;30;20444;-75
2021/03/18 03:28:44;;;;;;;8.20;7.10;;;-1.90;99.90;;;;;;4712166;30;20962;-75
2021/03/18 03:31:09;;;;;;;9.77;7.35;;;-1.90;99.90;;;;;;4711861;30;20439;-75
2021/03/18 03:33:36;;;;;;;8.10;6.63;;;-1.80;99.90;;;;;;4699789;30;20456;-76
2021/03/18 03:36:02;;;;;;;7.20;6.50;;;-1.80;99.90;;;;;;4696058;30;20435;-75
2021/03/18 03:38:27;;;;;;;5.90;5.40;;;-1.80;99.90;;;;;;4712855;30;20422;-75
2021/03/18 03:40:53;;;;;;;7.15;6.05;;;-1.70;99.90;;;;;;4695903;30;20512;-75
2021/03/18 03:43:19;;;;;;;8.35;6.95;;;-1.70;99.90;;;;;;4701883;30;20453;-75
2021/03/18 03:45:46;;;;;;;7.72;6.32;;;-1.70;99.90;;;;;;4693831;30;20450;-75
2021/03/18 03:48:12;;;;;;;8.20;6.40;;;-1.70;99.90;;;;;;4708486;30;20422;-75
2021/03/18 03:50:38;;;;;;;7.67;6.83;;;-1.70;99.90;;;;;;4700091;30;20939;-75
2021/03/18 03:53:40;;;;;;;7.40;6.40;;;-1.70;99.90;;;;;;4701186;30;20426;-75
2021/03/18 03:56:29;;;;;;;7.90;6.70;;;-1.70;99.90;;;;;;4709567;30;20420;-75
2021/03/18 03:58:57;;;;;;;7.57;6.82;;;-1.70;99.90;;;;;;4702542;30;20414;-75
2021/03/18 04:01:43;;;;;;;7.55;6.57;;;-1.70;99.90;;;;;;4705267;30;20414;-75
2021/03/18 04:04:46;;;;;;;10.23;6.65;;;-1.70;99.90;;;;;;4696902;30;21112;-75
2021/03/18 04:07:17;;;;;;;7.10;6.40;;;-1.70;99.90;;;;;;4713506;30;20446;-74
2021/03/18 04:09:44;;;;;;;7.93;6.78;;;-1.70;99.90;;;;;;4683346;30;20431;-75
2021/03/18 04:12:09;;;;;;;7.57;6.30;;;-1.70;99.90;;;;;;4713292;30;20445;-75
2021/03/18 04:14:36;;;;;;;7.43;6.60;;;-1.70;99.90;;;;;;4702261;30;20432;-74
2021/03/18 04:17:06;;;;;;;8.10;6.93;;;-1.70;99.90;;;;;;4709135;30;20444;-75
2021/03/18 04:19:32;;;;;;;8.00;6.32;;;-1.60;99.90;;;;;;4719603;30;20467;-74
2021/03/18 04:21:58;;;;;;;7.90;6.23;;;-1.60;99.90;;;;;;4713408;30;20845;-75
2021/03/18 04:24:24;;;;;;;7.95;6.43;;;-1.70;99.90;;;;;;4729421;30;20476;-75
2021/03/18 04:26:50;;;;;;;7.10;6.40;;;-1.70;99.90;;;;;;4714552;30;20441;-75
2021/03/18 04:29:16;;;;;;;9.07;7.20;;;-1.80;99.90;;;;;;4698055;30;20603;-76
2021/03/18 04:31:41;;;;;;;7.68;6.38;;;-1.70;99.90;;;;;;4699879;30;20840;-75
2021/03/18 04:34:08;;;;;;;7.75;5.85;;;-1.80;99.90;;;;;;4686109;30;21322;-75
2021/03/18 04:36:34;;;;;;;7.35;6.43;;;-1.80;99.90;;;;;;4698175;30;20523;-75
2021/03/18 04:39:00;;;;;;;7.03;6.13;;;-1.90;99.90;;;;;;4712066;30;20548;-74
2021/03/18 04:41:27;;;;;;;7.67;6.87;;;-1.90;99.90;;;;;;4705598;30;20474;-75
2021/03/18 04:43:53;;;;;;;8.17;7.00;;;-1.70;99.90;;;;;;4704208;30;20442;-75
2021/03/18 04:46:19;;;;;;;8.90;6.93;;;-1.80;99.90;;;;;;4710350;30;20835;-74
2021/03/18 04:48:44;;;;;;;7.78;6.53;;;-1.80;99.90;;;;;;4689613;30;20428;-75
2021/03/18 04:51:10;;;;;;;8.05;7.25;;;-1.80;99.90;;;;;;4683002;30;20481;-74
2021/03/18 04:53:36;;;;;;;8.15;7.28;;;-1.80;99.90;;;;;;4683370;30;20441;-74
2021/03/18 04:56:08;;;;;;;7.97;7.07;;;-1.80;99.90;;;;;;4700395;30;20435;-76
2021/03/18 04:58:38;;;;;;;7.05;6.22;;;-1.70;99.90;;;;;;4682749;30;20515;-75
2021/03/18 05:01:04;;;;;;;8.25;6.80;;;-1.60;99.90;;;;;;4687066;30;20438;-76
2021/03/18 05:03:29;;;;;;;6.82;6.00;;;-1.70;99.90;;;;;;4698119;30;20443;-75
2021/03/18 05:05:56;;;;;;;7.07;6.37;;;-1.60;99.90;;;;;;4682610;30;20448;-76
2021/03/18 05:08:21;;;;;;;7.10;6.40;;;-1.70;99.90;;;;;;4685588;30;20426;-75
2021/03/18 05:10:47;;;;;;;6.68;5.88;;;-1.80;99.90;;;;;;4704511;30;20473;-76
2021/03/18 05:13:13;;;;;;;6.10;5.50;;;-1.70;99.90;;;;;;4696491;30;20420;-75
2021/03/18 05:15:39;;;;;;;8.13;5.93;;;-1.80;99.90;;;;;;4680905;30;20430;-76
2021/03/18 05:18:07;;;;;;;5.60;5.07;;;-1.80;99.90;;;;;;4705430;30;20480;-76
2021/03/18 05:20:34;;;;;;;10.80;9.40;;;-1.90;99.90;;;;;;4682541;30;21260;-77
2021/03/18 05:23:00;;;;;;;6.25;5.60;;;-1.90;99.90;;;;;;4706415;30;20772;-75
2021/03/18 05:25:28;;;;;;;6.20;5.60;;;-1.80;99.90;;;;;;4702770;30;20451;-76
2021/03/18 05:27:54;;;;;;;6.80;6.15;;;-1.90;99.90;;;;;;4700790;30;20442;-76
2021/03/18 05:30:20;;;;;;;5.90;5.35;;;-1.90;99.90;;;;;;4683256;30;20481;-76
2021/03/18 05:32:45;;;;;;;7.40;5.90;;;-1.90;99.90;;;;;;4696598;30;20434;-76
2021/03/18 05:35:12;;;;;;;6.25;5.65;;;-2.00;99.90;;;;;;4699972;30;20497;-76
2021/03/18 05:37:38;;;;;;;7.13;6.43;;;-2.00;99.90;;;;;;4684168;30;20916;-76
2021/03/18 05:40:05;;;;;;;5.97;5.32;;;-2.00;99.90;;;;;;4678870;30;20897;-75
2021/03/18 05:42:31;;;;;;;7.77;6.23;;;-2.00;99.90;;;;;;4696098;30;21000;-76
2021/03/18 05:44:57;;;;;;;7.32;6.03;;;-2.00;99.90;;;;;;4679023;30;20445;-75
2021/03/18 05:47:23;;;;;;;6.97;5.63;;;-2.00;99.90;;;;;;4683143;30;20486;-75
2021/03/18 05:49:48;;;;;;;7.97;6.50;;;-2.00;99.90;;;;;;4693824;30;20435;-76
2021/03/18 05:52:15;;;;;;;7.05;6.35;;;-2.00;99.90;;;;;;4686150;30;20433;-77
2021/03/18 05:54:47;;;;;;;7.47;6.65;;;-2.00;99.90;;;;;;4682098;30;20499;-76
2021/03/18 05:57:13;;;;;;;7.10;6.40;;;-2.00;99.90;;;;;;4697372;30;20460;-75
2021/03/18 05:59:40;;;;;;;6.18;5.57;;;-2.00;99.90;;;;;;4709721;30;20500;-75
2021/03/18 06:02:06;;;;;;;7.20;6.50;;;-2.00;99.90;;;;;;4686489;30;20855;-75
2021/03/18 06:04:31;;;;;;;8.00;7.10;;;-1.90;99.90;;;;;;4695917;30;20467;-75
2021/03/18 06:06:57;;;;;;;7.25;6.55;;;-2.00;99.90;;;;;;4695387;30;20464;-76
2021/03/18 06:09:23;;;;;;;8.38;7.57;;;-1.90;99.90;;;;;;4694991;30;20424;-76
2021/03/18 06:11:48;;;;;;;8.50;6.97;;;-1.90;99.90;;;;;;4693327;30;20495;-78
2021/03/18 06:14:14;;;;;;;6.40;5.80;;;-1.80;99.90;;;;;;4684450;30;20424;-78
2021/03/18 06:16:40;;;;;;;7.03;6.10;;;-1.70;99.90;;;;;;4688605;30;20474;-78
2021/03/18 06:19:09;;;;;;;7.43;6.38;;;-1.80;99.90;;;;;;4702923;30;20914;-77
2021/03/18 06:21:41;;;;;;;6.80;6.18;;;-1.80;99.90;;;;;;4690543;30;20442;-78
2021/03/18 06:24:08;;;;;;;7.38;6.38;;;-1.70;99.90;;;;;;4695293;30;21010;-78
2021/03/18 06:26:37;;;;;;;7.25;6.53;;;-1.70;99.90;;;;;;4705672;30;20445;-78
2021/03/18 06:29:04;;;;;;;7.07;6.07;;;-1.70;99.90;;;;;;4684960;30;20447;-78
2021/03/18 06:31:30;;;;;;;10.13;7.82;;;-1.70;99.90;;;;;;4695333;30;20428;-77
2021/03/18 06:33:56;;;;;;;7.40;6.70;;;-1.60;99.90;;;;;;4690491;30;20803;-77
2021/03/18 06:36:29;;;;;;;6.47;5.87;;;-1.60;99.90;;;;;;4697865;30;20500;-78
2021/03/18 06:39:00;;;;;;;8.33;7.17;;;-1.60;99.90;;;;;;4683293;30;20416;-78
2021/03/18 06:41:39;;;;;;;7.70;6.90;;;-1.60;99.90;;;;;;4695756;30;20436;-78
2021/03/18 06:44:06;;;;;;;9.90;7.50;;;-1.60;99.90;;;;;;4701677;30;20455;-78
2021/03/18 06:46:31;;;;;;;7.50;6.80;;;-1.60;99.90;;;;;;4686864;30;20428;-78
2021/03/18 06:48:57;;;;;;;7.90;7.10;;;-1.60;99.90;;;;;;4685054;30;20429;-78
2021/03/18 06:51:25;;;;;;;8.93;8.00;;;-1.50;99.90;;;;;;4696347;30;20424;-77
2021/03/18 06:53:51;;;;;;;6.72;6.03;;;-1.40;99.90;;;;;;4696502;30;20419;-77
2021/03/18 06:56:28;;;;;;;8.88;8.00;;;-1.40;99.90;;;;;;4685351;30;20427;-77
2021/03/18 06:58:54;;;;;;;9.70;7.85;;;-1.40;99.90;;;;;;4708228;30;20521;-77
2021/03/18 07:01:27;;;;;;;8.60;7.70;;;-1.30;99.90;;;;;;4709623;30;20508;-77
2021/03/18 07:04:01;;;;;;;7.22;6.53;;;-1.20;99.90;;;;;;4693658;30;20503;-77
2021/03/18 07:06:29;;;;;;;9.27;8.10;;;-1.20;99.90;;;;;;4695135;30;20462;-76
2021/03/18 07:09:15;;;;;;;12.35;9.00;;;-1.30;99.90;;;;;;4694681;30;20420;-77
2021/03/18 07:11:43;;;;;;;7.93;7.13;;;-1.30;99.90;;;;;;4672865;30;20451;-77
2021/03/18 07:14:09;;;;;;;8.35;6.63;;;-1.30;99.90;;;;;;4696491;30;20455;-78
2021/03/18 07:16:39;;;;;;;9.30;7.93;;;-1.30;99.90;;;;;;4689761;30;20431;-77
2021/03/18 07:19:05;;;;;;;8.98;7.82;;;-1.30;99.90;;;;;;4681190;30;20500;-77
2021/03/18 07:21:38;;;;;;;9.23;7.77;;;-1.30;99.90;;;;;;4691902;30;20521;-77
2021/03/18 07:24:09;;;;;;;9.63;7.82;;;-1.20;99.90;;;;;;4709878;30;20436;-77
2021/03/18 07:26:38;;;;;;;8.37;7.57;;;-1.20;99.90;;;;;;4675138;30;20438;-77
2021/03/18 07:29:20;;;;;;;9.05;8.05;;;-1.20;99.90;;;;;;4703871;30;20504;-77
2021/03/18 07:31:47;;;;;;;9.55;8.50;;;-1.00;99.90;;;;;;4688296;30;20423;-77
2021/03/18 07:34:13;;;;;;;8.95;8.05;;;-1.10;99.90;;;;;;4694410;30;20424;-78
2021/03/18 07:36:40;;;;;;;12.63;9.70;;;-1.00;99.90;;;;;;4702245;30;20996;-77
2021/03/18 07:39:06;;;;;;;12.90;10.37;;;-1.00;99.90;;;;;;4694469;30;20428;-75
2021/03/18 07:41:32;;;;;;;9.32;8.35;;;-0.90;99.90;;;;;;4682642;30;20504;-78
2021/03/18 07:43:58;;;;;;;9.13;8.18;;;-0.90;99.90;;;;;;4696043;30;20524;-75
2021/03/18 07:46:24;;;;;;;9.90;8.05;;;-0.80;99.90;;;;;;4710356;30;20530;-74
2021/03/18 07:48:55;;;;;;;10.85;9.65;;;-0.80;99.90;;;;;;4720682;30;20541;-76
2021/03/18 07:51:21;;;;;;;12.75;9.65;;;-0.80;99.90;;;;;;4689459;30;20420;-77
2021/03/18 07:53:48;;;;;;;11.00;9.50;;;-0.80;99.90;;;;;;4692805;30;20515;-75
2021/03/18 07:56:15;;;;;;;12.55;10.60;;;-0.70;99.90;;;;;;4685561;30;20429;-75
2021/03/18 07:58:42;;;;;;;10.77;9.10;;;-0.70;99.90;;;;;;4696897;30;20439;-75
2021/03/18 08:01:13;;;;;;;12.52;9.82;;;-0.50;99.90;;;;;;4692473;30;20486;-74
2021/03/18 08:03:38;;;;;;;13.23;10.60;;;-0.60;99.90;;;;;;4693613;30;20463;-73
2021/03/18 08:06:04;;;;;;;11.75;9.43;;;-0.60;99.90;;;;;;4699338;30;20467;-75
2021/03/18 08:08:33;;;;;;;12.03;10.20;;;-0.40;99.90;;;;;;4699577;30;21122;-74
2021/03/18 08:11:09;;;;;;;12.60;10.23;;;-0.30;99.90;;;;;;4692302;30;20423;-74
2021/03/18 08:13:36;;;;;;;11.48;9.07;;;-0.10;99.90;;;;;;4708696;30;20615;-75
2021/03/18 08:16:04;;;;;;;11.77;10.23;;;0.00;99.90;;;;;;4702659;30;20438;-75
2021/03/18 08:18:31;;;;;;;12.80;9.73;;;0.10;99.90;;;;;;4689296;30;20491;-75
2021/03/18 08:20:58;;;;;;;11.97;10.00;;;0.20;99.90;;;;;;4684608;30;20429;-75
2021/03/18 08:23:24;;;;;;;12.57;10.50;;;0.30;99.90;;;;;;4692763;30;20443;-75
2021/03/18 08:25:59;;;;;;;11.15;9.95;;;0.20;99.90;;;;;;4696171;30;20464;-74
2021/03/18 08:28:48;;;;;;;13.00;10.60;;;0.20;99.90;;;;;;4707289;30;20428;-76
2021/03/18 08:31:15;;;;;;;13.88;10.93;;;0.20;99.90;;;;;;4689810;30;20431;-73
2021/03/18 08:33:51;;;;;;;14.40;11.38;;;0.30;99.90;;;;;;4691514;30;20432;-75
2021/03/18 08:36:28;;;;;;;15.00;11.90;;;0.30;99.90;;;;;;4719991;30;20430;-75
2021/03/18 08:38:59;;;;;;;14.68;9.90;;;0.50;99.90;;;;;;4721235;30;20414;-74
2021/03/18 08:41:35;;;;;;;13.57;11.77;;;0.50;99.90;;;;;;4700400;30;20425;-76
2021/03/18 08:44:19;;;;;;;12.85;10.32;;;0.60;99.90;;;;;;4713612;30;20430;-75
2021/03/18 08:46:51;;;;;;;14.10;11.30;;;0.60;99.90;;;;;;4721176;30;20453;-75
2021/03/18 08:49:18;;;;;;;14.32;11.48;;;0.60;99.90;;;;;;4717460;30;20424;-76
2021/03/18 08:51:44;;;;;;;13.30;10.93;;;0.70;99.90;;;;;;4714367;30;20491;-75
2021/03/18 08:54:10;;;;;;;11.77;10.25;;;0.70;99.90;;;;;;4699755;30;21014;-75
2021/03/18 08:56:42;;;;;;;15.47;12.33;;;0.80;99.90;;;;;;4708198;30;20430;-75
2021/03/18 08:59:10;;;;;;;14.23;11.00;;;0.90;99.90;;;;;;4714627;30;20902;-75
2021/03/18 09:01:36;;;;;;;12.82;11.43;;;1.00;99.90;;;;;;4708426;30;20651;-76
2021/03/18 09:04:01;;;;;;;17.37;13.60;;;1.10;99.90;;;;;;4711285;30;20454;-75
2021/03/18 09:06:30;;;;;;;16.73;13.47;;;1.00;99.90;;;;;;4713865;30;20437;-75
2021/03/18 09:08:56;;;;;;;14.80;11.48;;;1.10;99.90;;;;;;4713765;30;20426;-75
2021/03/18 09:11:24;;;;;;;18.50;12.70;;;1.10;99.90;;;;;;4717956;30;20427;-75
2021/03/18 09:13:49;;;;;;;14.23;12.07;;;1.10;99.90;;;;;;4710580;30;20507;-76
2021/03/18 09:16:20;;;;;;;15.00;12.43;;;1.10;99.90;;;;;;4718502;30;20955;-76
2021/03/18 09:18:46;;;;;;;15.57;11.77;;;1.10;99.90;;;;;;4702863;30;20415;-76
2021/03/18 09:21:12;;;;;;;18.50;13.90;;;1.30;99.90;;;;;;4714425;30;20421;-75
2021/03/18 09:23:42;;;;;;;14.43;11.20;;;1.30;99.90;;;;;;4699502;30;20424;-76
2021/03/18 09:26:10;;;;;;;16.77;12.07;;;1.50;99.90;;;;;;4712374;30;20469;-77
2021/03/18 09:28:42;;;;;;;13.68;11.18;;;1.50;99.90;;;;;;4713136;30;20438;-75
2021/03/18 09:31:08;;;;;;;15.18;11.93;;;1.60;99.90;;;;;;4711525;30;20821;-76
2021/03/18 09:33:35;;;;;;;16.48;13.43;;;1.70;99.90;;;;;;4722607;30;20430;-76
2021/03/18 09:36:14;;;;;;;15.45;12.80;;;1.90;99.90;;;;;;4718430;30;20414;-76
2021/03/18 09:38:40;;;;;;;14.90;12.10;;;1.80;99.90;;;;;;4705146;30;20507;-75
2021/03/18 09:41:06;;;;;;;16.17;12.75;;;1.90;99.90;;;;;;4706017;30;20499;-76
2021/03/18 09:43:32;;;;;;;15.82;12.73;;;2.10;99.90;;;;;;4712700;30;20451;-77
2021/03/18 09:46:05;;;;;;;15.63;12.95;;;2.20;99.90;;;;;;4720338;30;20533;-76
2021/03/18 09:48:35;;;;;;;16.88;12.68;;;2.20;99.90;;;;;;4706598;30;20414;-77
2021/03/18 09:51:14;;;;;;;13.98;11.55;;;2.30;99.90;;;;;;4707786;30;20427;-75
2021/03/18 09:53:41;;;;;;;15.60;11.52;;;2.20;99.90;;;;;;4699864;30;21263;-75
2021/03/18 09:56:09;;;;;;;14.73;12.10;;;2.20;99.90;;;;;;4706228;30;20422;-75
2021/03/18 09:58:34;;;;;;;15.90;12.55;;;2.30;99.90;;;;;;4715211;30;20485;-75
2021/03/18 10:01:14;;;;;;;14.23;11.65;;;2.30;99.90;;;;;;4702259;30;20848;-75
2021/03/18 10:04:00;;;;;;;16.20;12.40;;;2.40;99.90;;;;;;4711146;30;20423;-74
2021/03/18 10:06:27;;;;;;;14.95;11.43;;;2.40;99.90;;;;;;4704607;30;20816;-75
2021/03/18 10:08:53;;;;;;;12.88;10.50;;;2.50;99.90;;;;;;4711240;30;20441;-78
2021/03/18 10:11:22;;;;;;;13.35;11.15;;;2.40;99.90;;;;;;4700433;30;20521;-75
2021/03/18 10:13:47;;;;;;;11.93;9.98;;;2.40;99.90;;;;;;4725040;30;20443;-75
2021/03/18 10:16:13;;;;;;;13.13;10.20;;;2.50;99.90;;;;;;4710382;30;20860;-74
2021/03/18 10:18:39;;;;;;;14.63;9.33;;;2.50;99.90;;;;;;4720166;30;20427;-76
2021/03/18 10:21:05;;;;;;;10.70;9.20;;;2.60;99.90;;;;;;4691834;30;20890;-75
2021/03/18 10:23:30;;;;;;;13.52;10.02;;;2.60;99.90;;;;;;4700394;30;20426;-77
2021/03/18 10:25:56;;;;;;;11.25;9.45;;;2.50;99.90;;;;;;4695670;30;20496;-76
2021/03/18 10:28:24;;;;;;;12.40;9.50;;;2.50;99.90;;;;;;4710217;30;20943;-75
2021/03/18 10:30:50;;;;;;;10.50;8.88;;;2.50;99.90;;;;;;4732209;30;20518;-76
2021/03/18 10:33:20;;;;;;;11.80;9.37;;;2.50;99.90;;;;;;4716904;30;20758;-77
2021/03/18 10:35:52;;;;;;;11.43;9.10;;;2.50;99.90;;;;;;4704486;30;20427;-75
2021/03/18 10:38:23;;;;;;;13.52;9.35;;;2.50;99.90;;;;;;4738453;30;20414;-76
2021/03/18 10:40:50;;;;;;;11.88;9.38;;;2.70;99.90;;;;;;4695564;30;20481;-76
2021/03/18 10:43:33;;;;;;;13.25;10.23;;;2.50;99.90;;;;;;4715128;30;20437;-76
2021/03/18 10:46:09;;;;;;;10.40;9.30;;;2.60;99.90;;;;;;4701680;30;20420;-77
2021/03/18 10:48:36;;;;;;;11.97;10.17;;;2.70;99.90;;;;;;4722777;30;20422;-76
2021/03/18 10:51:09;;;;;;;13.75;10.25;;;2.70;99.90;;;;;;4697595;30;20429;-75
2021/03/18 10:53:38;;;;;;;12.05;10.02;;;3.00;99.90;;;;;;4713389;30;20438;-74
2021/03/18 10:56:36;;;;;;;11.40;9.45;;;2.90;99.90;;;;;;4687391;30;20436;-75
2021/03/18 10:59:20;;;;;;;12.15;10.50;;;2.80;99.90;;;;;;4676964;30;20422;-75
2021/03/18 11:01:47;;;;;;;11.60;9.88;;;3.00;99.90;;;;;;4691697;30;20422;-75
2021/03/18 11:04:13;;;;;;;12.60;10.48;;;3.20;99.90;;;;;;4728878;30;20426;-74
2021/03/18 11:06:48;;;;;;;11.50;9.88;;;3.40;99.90;;;;;;4729502;30;20468;-75
2021/03/18 11:09:15;;;;;;;11.63;9.05;;;3.50;99.90;;;;;;4713958;30;20425;-78
2021/03/18 11:11:40;;;;;;;10.57;9.55;;;3.40;99.90;;;;;;4718385;30;20438;-78
2021/03/18 11:14:13;;;;;;;10.43;9.10;;;3.40;99.90;;;;;;4712823;30;20420;-75
2021/03/18 11:16:40;;;;;;;10.77;9.05;;;3.40;99.90;;;;;;4720363;30;20426;-77
2021/03/18 11:19:08;;;;;;;9.55;8.38;;;3.50;99.90;;;;;;4698032;30;20447;-76
2021/03/18 11:21:34;;;;;;;10.88;9.73;;;3.50;99.90;;;;;;4716384;30;20985;-75
2021/03/18 11:24:05;;;;;;;10.40;9.30;;;3.40;99.90;;;;;;4713426;30;20428;-75
2021/03/18 11:26:31;;;;;;;9.65;8.65;;;3.50;99.90;;;;;;4717400;30;20809;-75
2021/03/18 11:28:59;;;;;;;10.25;9.13;;;3.50;99.90;;;;;;4705135;30;20432;-75
2021/03/18 11:31:26;;;;;;;10.07;8.20;;;3.60;99.90;;;;;;4707819;30;20422;-77
2021/03/18 11:33:52;;;;;;;9.52;8.52;;;3.70;99.90;;;;;;4726360;30;20854;-79
2021/03/18 11:36:18;;;;;;;11.85;8.90;;;3.60;99.90;;;;;;4695434;30;20432;-75
2021/03/18 11:38:44;;;;;;;9.27;7.90;;;3.60;99.90;;;;;;4698804;30;20520;-74
2021/03/18 11:41:10;;;;;;;9.83;7.90;;;3.70;99.90;;;;;;4683991;30;20477;-76
2021/03/18 11:43:36;;;;;;;9.85;7.43;;;3.70;99.90;;;;;;4703739;30;20540;-75
2021/03/18 11:46:01;;;;;;;7.90;7.07;;;3.80;99.90;;;;;;4717294;30;20434;-76
2021/03/18 11:48:27;;;;;;;6.65;5.85;;;3.80;99.90;;;;;;4719792;30;20532;-76
2021/03/18 11:50:53;;;;;;;6.30;5.47;;;3.80;99.90;;;;;;4700543;30;20404;-75
2021/03/18 11:53:19;;;;;;;5.47;5.03;;;3.80;99.90;;;;;;4699487;30;20841;-76
2021/03/18 11:55:44;;;;;;;5.40;4.90;;;3.90;99.90;;;;;;4702290;30;20514;-76
2021/03/18 11:58:13;;;;;;;5.55;4.78;;;3.90;99.90;;;;;;4686478;30;20489;-79
2021/03/18 12:00:39;;;;;;;5.43;4.93;;;4.10;99.90;;;;;;4702297;30;20897;-78
2021/03/18 12:03:06;;;;;;;5.37;4.83;;;4.40;99.90;;;;;;4691029;30;20424;-77
2021/03/18 12:05:32;;;;;;;4.80;4.30;;;4.60;99.90;;;;;;4698315;30;20416;-77
2021/03/18 12:07:58;;;;;;;5.83;4.50;;;4.80;99.90;;;;;;4698952;30;20431;-78
2021/03/18 12:10:24;;;;;;;4.40;4.00;;;4.80;99.90;;;;;;4684777;30;20969;-77
2021/03/18 12:12:49;;;;;;;4.18;3.78;;;4.80;99.90;;;;;;4682179;30;20796;-78
2021/03/18 12:15:15;;;;;;;5.30;4.10;;;4.80;99.90;;;;;;4683560;30;20415;-77
2021/03/18 12:17:42;;;;;;;4.10;3.75;;;4.80;99.90;;;;;;4701474;30;20464;-78
2021/03/18 12:20:10;;;;;;;4.15;3.80;;;5.00;99.90;;;;;;4728403;30;20418;-77
2021/03/18 12:22:36;;;;;;;5.03;4.38;;;5.00;99.90;;;;;;4710429;30;21010;-77
2021/03/18 12:25:04;;;;;;;4.43;4.03;;;5.10;99.90;;;;;;4695087;30;20530;-76
2021/03/18 12:27:30;;;;;;;5.05;4.55;;;5.10;99.90;;;;;;4697881;30;20436;-76
2021/03/18 12:29:56;;;;;;;4.57;4.07;;;5.30;99.90;;;;;;4693960;30;20427;-77
2021/03/18 12:32:22;;;;;;;4.57;4.15;;;5.30;99.90;;;;;;4678200;30;20415;-78
2021/03/18 12:34:48;;;;;;;5.35;4.50;;;5.40;99.90;;;;;;4682789;30;20486;-77
2021/03/18 12:37:14;;;;;;;4.80;4.40;;;5.50;99.90;;;;;;4701154;30;20825;-77
2021/03/18 12:39:41;;;;;;;5.00;4.50;;;5.50;99.90;;;;;;4700833;30;20502;-77
2021/03/18 12:42:08;;;;;;;5.40;4.63;;;5.30;99.90;;;;;;4706435;30;20426;-77
2021/03/18 12:44:34;;;;;;;4.97;4.43;;;5.50;99.90;;;;;;4689521;30;20420;-76
2021/03/18 12:47:00;;;;;;;4.63;4.22;;;5.70;99.90;;;;;;4705982;30;20457;-76
2021/03/18 12:49:26;;;;;;;5.65;4.57;;;5.90;99.90;;;;;;4695290;30;20951;-78
2021/03/18 12:51:51;;;;;;;5.23;4.27;;;6.20;99.90;;;;;;4712369;30;21170;-76